createdAt,value
2022-08-26T00:01:54.062Z,23.52
2022-08-26T00:04:23.561Z,23.52
2022-08-26T00:06:51.091Z,23.50
2022-08-26T00:09:18.405Z,23.51
2022-08-26T00:11:46.391Z,23.51
2022-08-26T00:14:15.768Z,23.53
2022-08-26T00:16:48.161Z,23.54
2022-08-26T00:19:17.923Z,23.56
2022-08-26T00:21:46.278Z,23.57
2022-08-26T00:24:16.531Z,23.51
2022-08-26T00:26:44.759Z,23.42
2022-08-26T00:29:12.272Z,23.37
2022-08-26T00:31:40.514Z,23.35
2022-08-26T00:34:09.516Z,23.35
2022-08-26T00:36:37.102Z,23.29
2022-08-26T00:39:06.982Z,23.23
2022-08-26T00:41:35.175Z,23.18
2022-08-26T00:44:02.728Z,23.14
2022-08-26T00:46:34.160Z,23.15
2022-08-26T00:49:28.142Z,23.08
2022-08-26T00:51:58.323Z,23.03
2022-08-26T00:54:31.016Z,23.02
2022-08-26T00:57:01.893Z,22.99
2022-08-26T00:59:32.771Z,22.97
2022-08-26T01:02:00.776Z,22.97
2022-08-26T01:04:31.617Z,22.97
2022-08-26T01:06:59.178Z,22.93
2022-08-26T01:09:27.472Z,22.90
2022-08-26T01:11:59.138Z,22.91
2022-08-26T01:14:29.592Z,22.92
2022-08-26T01:16:56.814Z,22.92
2022-08-26T01:19:32.105Z,22.84
2022-08-26T01:22:02.709Z,22.91
2022-08-26T01:24:31.359Z,22.97
2022-08-26T01:27:02.455Z,23.02
2022-08-26T01:29:31.304Z,23.02
2022-08-26T01:31:58.800Z,23.02
2022-08-26T01:34:32.160Z,22.98
2022-08-26T01:37:05.386Z,22.95
2022-08-26T01:39:33.874Z,22.91
2022-08-26T01:42:03.133Z,22.90
2022-08-26T01:44:44.988Z,22.88
2022-08-26T01:47:13.735Z,22.85
2022-08-26T01:49:42.505Z,22.77
2022-08-26T01:52:10.933Z,22.75
2022-08-26T01:54:40.111Z,22.71
2022-08-26T01:57:07.924Z,22.72
2022-08-26T01:59:35.442Z,22.74
2022-08-26T02:02:02.915Z,22.75
2022-08-26T02:04:34.730Z,22.73
2022-08-26T02:07:05.200Z,22.69
2022-08-26T02:09:33.196Z,22.64
2022-08-26T02:12:09.419Z,22.65
2022-08-26T02:14:43.873Z,22.64
2022-08-26T02:17:33.030Z,22.63
2022-08-26T02:20:00.376Z,22.63
2022-08-26T02:22:29.315Z,22.61
2022-08-26T02:24:57.721Z,22.59
2022-08-26T02:27:35.043Z,22.55
2022-08-26T02:30:12.201Z,22.59
2022-08-26T02:32:41.332Z,22.57
2022-08-26T02:35:10.874Z,22.56
2022-08-26T02:37:38.781Z,22.56
2022-08-26T02:40:11.565Z,22.57
2022-08-26T02:42:39.079Z,22.60
2022-08-26T02:45:07.387Z,22.60
2022-08-26T02:47:34.940Z,22.52
2022-08-26T02:50:02.130Z,22.47
2022-08-26T02:52:29.389Z,22.45
2022-08-26T02:54:56.709Z,22.47
2022-08-26T02:57:24.210Z,22.41
2022-08-26T02:59:51.571Z,22.41
2022-08-26T03:02:19.021Z,22.41
2022-08-26T03:04:58.183Z,22.41
2022-08-26T03:07:29.267Z,22.39
2022-08-26T03:09:57.447Z,22.38
2022-08-26T03:12:25.679Z,22.37
2022-08-26T03:14:53.276Z,22.31
2022-08-26T03:17:21.029Z,22.29
2022-08-26T03:19:51.776Z,22.28
2022-08-26T03:22:21.529Z,22.30
2022-08-26T03:24:50.092Z,22.31
2022-08-26T03:27:17.416Z,22.31
2022-08-26T03:30:03.268Z,22.28
2022-08-26T03:32:30.622Z,22.29
2022-08-26T03:34:58.235Z,22.29
2022-08-26T03:37:25.498Z,22.24
2022-08-26T03:39:53.179Z,22.23
2022-08-26T03:42:22.093Z,22.24
2022-08-26T03:44:49.697Z,22.20
2022-08-26T03:47:17.340Z,22.18
2022-08-26T03:49:44.557Z,22.17
2022-08-26T03:52:12.456Z,22.18
2022-08-26T03:54:40.917Z,22.19
2022-08-26T03:57:10.688Z,22.21
2022-08-26T03:59:37.911Z,22.22
2022-08-26T04:02:11.668Z,22.22
2022-08-26T04:04:39.203Z,22.23
2022-08-26T04:07:06.424Z,22.23
2022-08-26T04:09:35.278Z,22.19
2022-08-26T04:12:03.871Z,22.15
2022-08-26T04:14:32.551Z,22.09
2022-08-26T04:16:59.765Z,22.14
2022-08-26T04:19:26.984Z,22.13
2022-08-26T04:21:54.338Z,22.12
2022-08-26T04:24:23.681Z,22.15
2022-08-26T04:26:51.048Z,22.16
2022-08-26T04:29:26.732Z,22.16
2022-08-26T04:31:55.916Z,22.16
2022-08-26T04:34:24.506Z,22.20
2022-08-26T04:36:54.728Z,22.23
2022-08-26T04:39:21.938Z,22.24
2022-08-26T04:41:50.516Z,22.26
2022-08-26T04:44:18.916Z,22.27
2022-08-26T04:46:46.174Z,22.30
2022-08-26T04:49:14.226Z,22.34
2022-08-26T04:51:41.481Z,22.40
2022-08-26T04:54:11.733Z,22.44
2022-08-26T04:56:41.357Z,22.47
2022-08-26T04:59:16.752Z,22.50
2022-08-26T05:01:51.690Z,22.57
2022-08-26T05:04:20.924Z,22.61
2022-08-26T05:06:49.029Z,22.70
2022-08-26T05:09:18.772Z,22.74
2022-08-26T05:11:51.933Z,22.78
2022-08-26T05:14:20.624Z,22.89
2022-08-26T05:16:49.328Z,22.93
2022-08-26T05:19:18.965Z,22.95
2022-08-26T05:21:47.739Z,22.96
2022-08-26T05:24:15.803Z,22.97
2022-08-26T05:26:44.552Z,23.02
2022-08-26T05:29:12.121Z,23.11
2022-08-26T05:31:39.523Z,23.18
2022-08-26T05:34:08.468Z,23.19
2022-08-26T05:36:36.304Z,23.28
2022-08-26T05:39:10.862Z,23.38
2022-08-26T05:41:41.177Z,23.43
2022-08-26T05:44:10.692Z,23.53
2022-08-26T05:46:38.844Z,23.60
2022-08-26T05:49:12.827Z,23.70
2022-08-26T05:51:41.675Z,23.82
2022-08-26T05:54:10.383Z,23.84
2022-08-26T05:56:38.965Z,23.87
2022-08-26T05:59:10.931Z,24.03
2022-08-26T06:01:43.109Z,24.17
2022-08-26T06:04:10.984Z,24.28
2022-08-26T06:06:41.347Z,24.21
2022-08-26T06:09:11.133Z,24.38
2022-08-26T06:11:38.892Z,24.48
2022-08-26T06:14:08.002Z,24.42
2022-08-26T06:16:40.830Z,24.54
2022-08-26T06:19:10.688Z,24.79
2022-08-26T06:21:40.177Z,25.04
2022-08-26T06:24:27.558Z,25.13
2022-08-26T06:26:57.285Z,25.23
2022-08-26T06:29:25.963Z,25.41
2022-08-26T06:31:54.581Z,25.58
2022-08-26T06:34:23.848Z,25.73
2022-08-26T06:36:58.776Z,25.92
2022-08-26T06:39:26.183Z,26.09
2022-08-26T06:41:53.520Z,26.43
2022-08-26T06:44:22.353Z,27.01
2022-08-26T06:46:50.254Z,27.69
2022-08-26T06:49:27.198Z,28.13
2022-08-26T06:51:59.901Z,28.81
2022-08-26T06:57:34.865Z,29.86
2022-08-26T07:00:11.876Z,30.13
2022-08-26T07:02:46.989Z,30.76
2022-08-26T07:05:14.786Z,31.18
2022-08-26T07:07:42.133Z,31.53
2022-08-26T07:10:10.479Z,32.04
2022-08-26T07:12:37.824Z,32.44
2022-08-26T07:15:05.521Z,32.59
2022-08-26T07:17:35.171Z,32.23
2022-08-26T07:20:03.661Z,32.76
2022-08-26T07:22:32.157Z,33.41
2022-08-26T07:24:59.463Z,33.17
2022-08-26T07:27:27.462Z,33.26
2022-08-26T07:29:58.729Z,33.42
2022-08-26T07:32:26.025Z,32.80
2022-08-26T07:34:53.360Z,33.04
2022-08-26T07:37:20.845Z,33.30
2022-08-26T07:39:48.271Z,33.23
2022-08-26T07:42:18.441Z,33.47
2022-08-26T07:44:45.865Z,32.52
2022-08-26T07:47:25.774Z,32.38
2022-08-26T07:49:56.067Z,32.90
2022-08-26T07:52:26.572Z,33.31
2022-08-26T07:54:58.112Z,33.52
2022-08-26T07:57:26.311Z,32.76
2022-08-26T07:59:55.167Z,32.52
2022-08-26T08:02:23.863Z,31.85
2022-08-26T08:04:51.808Z,31.59
2022-08-26T08:07:19.386Z,31.43
2022-08-26T08:09:49.597Z,31.39
2022-08-26T08:12:17.914Z,31.29
2022-08-26T08:14:47.117Z,31.32
2022-08-26T08:17:16.028Z,31.09
2022-08-26T08:19:44.711Z,30.84
2022-08-26T08:22:17.857Z,30.42
2022-08-26T08:24:49.777Z,30.66
2022-08-26T08:27:22.796Z,30.88
2022-08-26T08:29:54.186Z,31.04
2022-08-26T08:32:23.513Z,31.08
2022-08-26T08:34:51.352Z,30.85
2022-08-26T08:37:18.887Z,30.88
2022-08-26T08:39:46.191Z,31.02
2022-08-26T08:42:43.870Z,31.18
2022-08-26T08:45:20.512Z,31.35
2022-08-26T08:47:51.831Z,31.52
2022-08-26T08:50:33.974Z,31.78
2022-08-26T08:53:21.999Z,31.92
2022-08-26T08:56:03.122Z,31.91
2022-08-26T08:58:53.516Z,31.51
2022-08-26T09:01:37.634Z,31.32
2022-08-26T09:04:20.275Z,31.36
2022-08-26T09:06:48.915Z,31.40
2022-08-26T09:09:18.962Z,31.49
2022-08-26T09:11:46.188Z,30.96
2022-08-26T09:14:13.401Z,31.09
2022-08-26T09:16:51.803Z,30.89
2022-08-26T09:19:26.525Z,30.91
2022-08-26T09:21:58.650Z,30.75
2022-08-26T09:24:28.604Z,30.44
2022-08-26T09:26:58.277Z,30.70
2022-08-26T09:29:31.359Z,30.82
2022-08-26T09:32:24.065Z,30.83
2022-08-26T09:35:09.495Z,30.56
2022-08-26T09:40:34.910Z,30.76
2022-08-26T09:43:16.671Z,30.94
2022-08-26T09:45:59.156Z,30.46
2022-08-26T09:48:30.849Z,30.18
2022-08-26T09:51:04.140Z,30.17
2022-08-26T09:53:37.040Z,30.19
2022-08-26T09:56:29.830Z,30.15
2022-08-26T09:58:58.177Z,30.06
2022-08-26T10:01:36.098Z,30.31
2022-08-26T10:04:15.389Z,30.72
2022-08-26T10:07:07.474Z,30.34
2022-08-26T10:09:39.527Z,30.13
2022-08-26T10:12:19.541Z,30.05
2022-08-26T10:14:53.014Z,29.57
2022-08-26T10:17:32.497Z,29.77
2022-08-26T10:20:22.555Z,29.74
2022-08-26T10:23:02.294Z,29.84
2022-08-26T10:25:35.990Z,29.89
2022-08-26T10:28:27.455Z,30.34
2022-08-26T10:31:05.364Z,30.82
2022-08-26T10:33:32.971Z,31.09
2022-08-26T10:36:06.232Z,31.16
2022-08-26T10:38:36.354Z,30.70
2022-08-26T10:41:10.725Z,30.86
2022-08-26T10:43:51.796Z,30.94
2022-08-26T10:46:27.588Z,30.93
2022-08-26T10:49:00.127Z,31.02
2022-08-26T10:51:35.649Z,31.10
2022-08-26T10:54:13.693Z,31.09
2022-08-26T10:57:10.559Z,31.10
2022-08-26T11:03:34.534Z,30.94
2022-08-26T11:06:31.783Z,29.97
2022-08-26T11:09:07.827Z,29.36
2022-08-26T11:11:42.592Z,29.22
2022-08-26T11:14:53.263Z,29.22
2022-08-26T11:17:44.462Z,29.16
2022-08-26T11:20:30.089Z,29.22
2022-08-26T11:23:13.328Z,29.14
2022-08-26T11:25:59.738Z,28.61
2022-08-26T11:28:50.087Z,28.23
2022-08-26T11:31:30.494Z,28.02
2022-08-26T11:34:01.186Z,28.10
2022-08-26T11:36:49.158Z,28.14
2022-08-26T11:39:55.145Z,27.90
2022-08-26T11:42:32.037Z,27.83
2022-08-26T11:45:03.538Z,27.49
2022-08-26T11:47:33.243Z,27.28
2022-08-26T11:50:27.513Z,27.01
2022-08-26T11:53:04.584Z,27.05
2022-08-26T11:55:36.305Z,26.99
2022-08-26T11:58:05.841Z,26.70
2022-08-26T12:00:45.610Z,26.78
2022-08-26T12:03:23.169Z,26.87
2022-08-26T12:05:52.641Z,27.01
2022-08-26T12:08:24.855Z,26.78
2022-08-26T12:11:10.094Z,26.49
2022-08-26T12:13:39.211Z,26.00
2022-08-26T12:16:06.952Z,25.42
2022-08-26T12:18:38.041Z,25.04
2022-08-26T12:21:14.417Z,24.90
2022-08-26T12:23:47.044Z,24.75
2022-08-26T12:26:27.674Z,24.72
2022-08-26T12:29:26.529Z,24.56
2022-08-26T12:32:13.528Z,23.53
2022-08-26T12:34:42.539Z,22.74
2022-08-26T12:37:12.132Z,22.66
2022-08-26T12:39:42.368Z,22.37
2022-08-26T12:42:15.798Z,22.38
2022-08-26T12:44:53.816Z,22.45
2022-08-26T12:47:42.678Z,22.08
2022-08-26T12:50:27.406Z,22.00
2022-08-26T12:53:02.319Z,22.00
2022-08-26T12:55:32.431Z,22.02
2022-08-26T12:58:29.931Z,22.06
2022-08-26T13:01:19.495Z,21.95
2022-08-26T13:03:47.592Z,21.80
2022-08-26T13:06:31.615Z,21.41
2022-08-26T13:09:08.020Z,21.36
2022-08-26T13:11:58.762Z,21.37
2022-08-26T13:14:26.304Z,21.03
2022-08-26T13:16:53.953Z,20.91
2022-08-26T13:19:25.861Z,20.98
2022-08-26T13:21:57.788Z,20.92
2022-08-26T13:24:44.740Z,20.90
2022-08-26T13:27:14.548Z,20.81
2022-08-26T13:29:41.848Z,20.89
2022-08-26T13:32:09.571Z,20.96
2022-08-26T13:34:37.965Z,20.87
2022-08-26T13:37:05.618Z,20.61
2022-08-26T13:39:33.183Z,20.53
2022-08-26T13:42:00.589Z,20.64
2022-08-26T13:44:29.446Z,20.85
2022-08-26T13:46:56.717Z,21.07
2022-08-26T13:49:23.974Z,21.25
2022-08-26T13:51:51.383Z,21.23
2022-08-26T13:54:19.933Z,21.44
2022-08-26T13:56:47.230Z,21.54
2022-08-26T13:59:14.461Z,21.58
2022-08-26T14:01:41.773Z,21.59
2022-08-26T14:04:09.397Z,21.57
2022-08-26T14:06:37.385Z,21.39
2022-08-26T14:09:05.052Z,21.42
2022-08-26T14:11:45.026Z,21.40
2022-08-26T14:14:19.871Z,21.28
2022-08-26T14:16:58.946Z,21.18
2022-08-26T14:19:27.937Z,20.62
2022-08-26T14:21:55.221Z,20.50
2022-08-26T14:24:22.443Z,20.66
2022-08-26T14:26:49.926Z,20.79
2022-08-26T14:29:17.230Z,20.25
2022-08-26T14:31:45.071Z,19.98
2022-08-26T14:34:13.402Z,19.94
2022-08-26T14:36:40.657Z,19.82
2022-08-26T14:39:10.519Z,19.76
2022-08-26T14:41:54.062Z,19.74
2022-08-26T14:44:26.785Z,19.66
2022-08-26T14:46:54.562Z,20.49
2022-08-26T14:49:23.484Z,21.36
2022-08-26T14:51:50.964Z,20.05
2022-08-26T14:54:18.992Z,19.94
2022-08-26T14:56:57.536Z,19.89
2022-08-26T14:59:30.267Z,19.73
2022-08-26T15:01:59.096Z,19.87
2022-08-26T15:04:26.486Z,19.95
2022-08-26T15:06:54.878Z,19.97
2022-08-26T15:09:23.129Z,20.13
2022-08-26T15:11:50.908Z,20.29
2022-08-26T15:14:19.562Z,20.35
2022-08-26T15:16:47.959Z,20.34
2022-08-26T15:19:16.240Z,20.03
2022-08-26T15:21:45.257Z,20.01
2022-08-26T15:24:13.472Z,20.16
2022-08-26T15:26:41.764Z,20.03
2022-08-26T15:29:09.301Z,20.15
2022-08-26T15:31:36.979Z,20.20
2022-08-26T15:34:07.036Z,20.08
2022-08-26T15:36:35.563Z,20.15
2022-08-26T15:39:02.875Z,20.24
2022-08-26T15:41:30.148Z,20.35
2022-08-26T15:44:03.411Z,20.44
2022-08-26T15:46:31.680Z,20.35
2022-08-26T15:48:59.119Z,20.37
2022-08-26T15:51:31.806Z,20.41
2022-08-26T15:53:59.792Z,20.42
2022-08-26T15:56:29.470Z,20.46
2022-08-26T15:58:57.731Z,20.52
2022-08-26T16:01:27.539Z,20.60
2022-08-26T16:03:55.782Z,20.58
2022-08-26T16:06:27.495Z,20.48
2022-08-26T16:08:57.263Z,20.66
2022-08-26T16:11:25.695Z,20.66
2022-08-26T16:13:53.142Z,20.76
2022-08-26T16:16:22.245Z,20.84
2022-08-26T16:18:52.760Z,20.90
2022-08-26T16:21:28.064Z,20.93
2022-08-26T16:23:57.680Z,20.98
2022-08-26T16:26:28.056Z,21.05
2022-08-26T16:28:58.348Z,21.09
2022-08-26T16:31:25.947Z,21.13
2022-08-26T16:33:53.206Z,21.21
2022-08-26T16:36:20.754Z,21.26
2022-08-26T16:38:56.699Z,21.27
2022-08-26T16:41:29.232Z,21.32
2022-08-26T16:43:57.625Z,21.32
2022-08-26T16:46:26.244Z,21.36
2022-08-26T16:48:56.616Z,21.34
2022-08-26T16:51:27.386Z,21.36
2022-08-26T16:53:56.272Z,21.36
2022-08-26T16:56:27.732Z,21.41
2022-08-26T16:59:02.183Z,21.44
2022-08-26T17:01:29.736Z,21.39
2022-08-26T17:03:57.670Z,21.38
2022-08-26T17:06:24.977Z,21.42
2022-08-26T17:08:53.145Z,21.39
2022-08-26T17:11:20.428Z,21.41
2022-08-26T17:13:47.961Z,21.44
2022-08-26T17:16:15.605Z,21.48
2022-08-26T17:18:42.973Z,21.48
2022-08-26T17:21:12.627Z,21.48
2022-08-26T17:23:41.032Z,21.42
2022-08-26T17:26:09.154Z,21.39
2022-08-26T17:28:36.958Z,21.44
2022-08-26T17:31:04.989Z,21.42
2022-08-26T17:33:33.037Z,21.40
2022-08-26T17:36:00.910Z,21.38
2022-08-26T17:38:29.181Z,21.41
2022-08-26T17:40:57.459Z,21.41
2022-08-26T17:43:26.845Z,21.38
2022-08-26T17:46:06.691Z,21.37
2022-08-26T17:48:35.330Z,21.32
2022-08-26T17:51:10.570Z,21.28
2022-08-26T17:53:37.957Z,21.28
2022-08-26T17:56:09.686Z,21.27
2022-08-26T17:58:37.883Z,21.22
2022-08-26T18:01:06.205Z,21.18
2022-08-26T18:03:33.849Z,21.18
2022-08-26T18:06:01.267Z,21.20
2022-08-26T18:08:28.754Z,21.24
2022-08-26T18:10:56.169Z,21.22
2022-08-26T18:13:23.518Z,21.18
2022-08-26T18:15:50.926Z,21.17
2022-08-26T18:18:18.278Z,21.23
2022-08-26T18:20:45.969Z,21.17
2022-08-26T18:23:20.149Z,20.96
2022-08-26T18:25:47.727Z,20.96
2022-08-26T18:30:57.544Z,20.96
2022-08-26T18:33:25.005Z,20.86
2022-08-26T18:35:52.799Z,20.83
2022-08-26T18:38:20.047Z,20.83
2022-08-26T18:40:49.718Z,20.85
2022-08-26T18:43:16.965Z,20.85
2022-08-26T18:45:44.224Z,20.79
2022-08-26T18:48:11.739Z,20.81
2022-08-26T18:50:40.395Z,20.76
2022-08-26T18:53:08.357Z,20.72
2022-08-26T18:55:35.678Z,20.64
2022-08-26T18:58:03.038Z,20.70
2022-08-26T19:00:31.561Z,20.69
2022-08-26T19:02:58.920Z,20.68
2022-08-26T19:05:27.872Z,20.48
2022-08-26T19:07:56.547Z,20.56
2022-08-26T19:10:24.779Z,20.63
2022-08-26T19:12:53.736Z,20.68
2022-08-26T19:15:22.694Z,20.66
2022-08-26T19:17:50.270Z,20.67
2022-08-26T19:20:17.534Z,20.70
2022-08-26T19:22:46.006Z,20.72
2022-08-26T19:25:13.657Z,20.73
2022-08-26T19:27:41.330Z,20.77
2022-08-26T19:30:09.882Z,20.73
2022-08-26T19:32:37.163Z,20.73
2022-08-26T19:35:05.978Z,20.75
2022-08-26T19:37:33.226Z,20.73
2022-08-26T19:40:00.571Z,20.73
2022-08-26T19:42:27.980Z,20.72
2022-08-26T19:45:18.261Z,20.74
2022-08-26T19:47:53.629Z,20.79
2022-08-26T19:50:21.998Z,20.83
2022-08-26T19:52:49.374Z,20.87
2022-08-26T19:55:18.716Z,20.82
2022-08-26T19:57:46.014Z,20.80
2022-08-26T20:00:15.991Z,20.83
2022-08-26T20:02:44.284Z,20.82
2022-08-26T20:05:13.423Z,20.78
2022-08-26T20:07:41.322Z,20.70
2022-08-26T20:10:12.405Z,20.74
2022-08-26T20:12:41.602Z,20.78
2022-08-26T20:15:10.637Z,20.83
2022-08-26T20:17:38.017Z,20.77
2022-08-26T20:20:26.967Z,20.68
2022-08-26T20:23:01.713Z,20.65
2022-08-26T20:25:29.104Z,20.69
2022-08-26T20:27:56.400Z,20.72
2022-08-26T20:30:23.779Z,20.74
2022-08-26T20:32:51.340Z,20.68
2022-08-26T20:35:18.728Z,20.60
2022-08-26T20:40:27.257Z,20.58
2022-08-26T20:42:54.578Z,20.58
2022-08-26T20:45:22.239Z,20.58
2022-08-26T20:47:49.459Z,20.59
2022-08-26T20:50:16.668Z,20.58
2022-08-26T20:52:43.957Z,20.61
2022-08-26T20:55:13.167Z,20.61
2022-08-26T20:57:43.264Z,20.61
2022-08-26T21:00:13.408Z,20.54
2022-08-26T21:02:41.405Z,20.56
2022-08-26T21:05:09.175Z,20.57
2022-08-26T21:07:36.439Z,20.56
2022-08-26T21:10:04.933Z,20.51
2022-08-26T21:12:32.264Z,20.48
2022-08-26T21:14:59.504Z,20.45
2022-08-26T21:17:26.948Z,20.30
2022-08-26T21:19:54.354Z,20.37
2022-08-26T21:22:21.752Z,20.39
2022-08-26T21:24:49.096Z,20.37
2022-08-26T21:27:17.640Z,20.40
2022-08-26T21:29:53.554Z,20.41
2022-08-26T21:32:20.799Z,20.43
2022-08-26T21:34:48.527Z,20.45
2022-08-26T21:37:16.562Z,20.41
2022-08-26T21:39:44.406Z,20.45
2022-08-26T21:42:13.090Z,20.45
2022-08-26T21:44:40.664Z,20.48
2022-08-26T21:47:08.087Z,20.54
2022-08-26T21:49:36.228Z,20.56
2022-08-26T21:52:04.544Z,20.58
2022-08-26T21:54:33.870Z,20.59
2022-08-26T21:57:01.131Z,20.56
2022-08-26T21:59:28.377Z,20.57
2022-08-26T22:01:56.170Z,20.58
2022-08-26T22:04:23.449Z,20.62
2022-08-26T22:06:53.674Z,20.52
2022-08-26T22:09:26.277Z,20.47
2022-08-26T22:11:54.163Z,20.41
2022-08-26T22:14:25.395Z,20.35
2022-08-26T22:16:58.353Z,20.42
2022-08-26T22:19:25.653Z,20.47
2022-08-26T22:21:54.557Z,20.44
2022-08-26T22:24:23.697Z,20.44
2022-08-26T22:26:51.045Z,20.42
2022-08-26T22:29:18.799Z,20.42
2022-08-26T22:31:48.892Z,20.46
2022-08-26T22:34:19.476Z,20.48
2022-08-26T22:36:48.205Z,20.47
2022-08-26T22:39:18.728Z,20.50
2022-08-26T22:41:48.777Z,20.50
2022-08-26T22:44:17.716Z,20.52
2022-08-26T22:46:45.550Z,20.49
2022-08-26T22:49:16.295Z,20.47
2022-08-26T22:51:44.417Z,20.43
2022-08-26T22:54:12.089Z,20.33
2022-08-26T22:56:39.601Z,20.23
2022-08-26T22:59:08.058Z,20.21
2022-08-26T23:01:37.318Z,20.24
2022-08-26T23:04:06.307Z,20.30
2022-08-26T23:06:36.579Z,20.33
2022-08-26T23:09:05.193Z,20.36
2022-08-26T23:11:32.809Z,20.40
2022-08-26T23:14:01.477Z,20.34
2022-08-26T23:16:39.142Z,20.31
2022-08-26T23:19:10.841Z,20.24
2022-08-26T23:21:38.636Z,20.27
2022-08-26T23:24:07.298Z,20.30
2022-08-26T23:26:35.738Z,20.32
2022-08-26T23:29:06.366Z,20.27
2022-08-26T23:31:34.263Z,20.26
2022-08-26T23:34:20.070Z,20.14
2022-08-26T23:36:47.757Z,20.09
2022-08-26T23:39:15.213Z,20.00
2022-08-26T23:41:42.530Z,20.05
2022-08-26T23:44:09.831Z,20.10
2022-08-26T23:46:37.126Z,20.05
2022-08-26T23:49:04.985Z,20.05
2022-08-26T23:51:51.019Z,19.98
2022-08-26T23:54:19.529Z,19.98
2022-08-26T23:56:47.048Z,20.01
2022-08-26T23:59:15.595Z,19.93
